Погода Жанакурылысна неделю

Алматинская область, Казахстан

22 - 28 июля
  • 22июля
    Сегодня
    +20°
    +33°
    Ясно и безоблачно
    ВремяПогодаТемператураВлажностьДавлениеВетер, м/сВероятность осадков
    02:00Практически безоблачно+21°C51 %683 мм0.3 м/с2 %
    05:00Ясно и безоблачно+19°C46 %683 мм0.3 м/с2 %
    08:00Ясно и безоблачно+25°C43 %685 мм0.2 м/с2 %
    11:00Ясно и безоблачно+30°C39 %686 мм0.6 м/с2 %
    14:00Ясно и безоблачно+32°C33 %685 мм0.9 м/с1 %
    17:00Ясно и безоблачно+32°C33 %685 мм0.5 м/с2 %
    20:00Ясно и безоблачно+26°C49 %684 мм0.8 м/с2 %
    23:00Ясно и безоблачно+24°C46 %683 мм0.6 м/с2 %
  • 23июля
    Вторник
    +22°
    +34°
    Небольшая облачность
    ВремяПогодаТемператураВлажностьДавлениеВетер, м/сВероятность осадков
    02:00Ясно и безоблачно+22°C44 %682 мм0.3 м/с2 %
    05:00Ясно и безоблачно+22°C36 %683 мм0.2 м/с2 %
    08:00Ясно и безоблачно+27°C44 %684 мм0.2 м/с2 %
    11:00Небольшая облачность+33°C38 %684 мм0.5 м/с2 %
    14:00Небольшая облачность+34°C34 %683 мм0.8 м/с10 %
    17:00Облачно с прояснениями+32°C37 %683 мм0.3 м/с15 %
    20:00Облачно с прояснениями+27°C52 %683 мм1.0 м/с21 %
    23:00Облачно с прояснениями+25°C53 %682 мм0.7 м/с13 %
  • 24июля
    Среда
    +22°
    +34°
    Небольшая облачность
    ВремяПогодаТемператураВлажностьДавлениеВетер, м/сВероятность осадков
    02:00Облачно с прояснениями+23°C48 %682 мм0.3 м/с6 %
    05:00Практически безоблачно+22°C64 %682 мм0.4 м/с6 %
    08:00Ясно и безоблачно+27°C51 %683 мм0.2 м/с9 %
    11:00Небольшая облачность+32°C39 %683 мм0.6 м/с9 %
    14:00Небольшая облачность+34°C31 %683 мм1.0 м/с13 %
    17:00Практически безоблачно+34°C33 %683 мм0.5 м/с4 %
    20:00Практически безоблачно+28°C45 %682 мм0.8 м/с2 %
    23:00Ясно и безоблачно+25°C44 %681 мм0.7 м/с2 %
  • 25июля
    Четверг
    +23°
    +36°
    Небольшая облачность
    ВремяПогодаТемператураВлажностьДавлениеВетер, м/сВероятность осадков
    02:00Ясно и безоблачно+24°C44 %680 мм0.3 м/с2 %
    05:00Ясно и безоблачно+23°C44 %680 мм0.3 м/с2 %
    08:00Ясно и безоблачно+28°C44 %682 мм0.2 м/с3 %
    11:00Практически безоблачно+33°C33 %682 мм0.5 м/с2 %
    14:00Небольшая облачность+35°C26 %682 мм1.0 м/с15 %
    17:00Практически безоблачно+35°C27 %682 мм0.6 м/с2 %
    20:00Облачно с прояснениями+28°C40 %682 мм0.8 м/с2 %
    23:00Ясно и безоблачно+26°C41 %682 мм0.7 м/с2 %
  • 26июля
    Пятница
    +24°
    +39°
    Ясно и безоблачно
    ВремяПогодаТемператураВлажностьДавлениеВетер, м/сВероятность осадков
    02:00Ясно и безоблачно+25°C43 %681 мм0.3 м/с2 %
    05:00Ясно и безоблачно+23°C45 %681 мм0.3 м/с2 %
    08:00Ясно и безоблачно+30°C39 %683 мм0.2 м/с2 %
    11:00Ясно и безоблачно+36°C25 %684 мм0.6 м/с2 %
    14:00Ясно и безоблачно+38°C20 %683 мм1.2 м/с2 %
    17:00Практически безоблачно+36°C26 %683 мм0.6 м/с2 %
    20:00Практически безоблачно+29°C34 %683 мм0.9 м/с2 %
    23:00Ясно и безоблачно+27°C37 %683 мм0.7 м/с2 %
Мы используем cookies
Соглашаюсь